Time;durP1;ratioP1;P1;durP2;ratioP2;P2;SDS_P1;SDS_P2;PMS_P1;PMS_P2;Temp;Humidity;BMP_temperature;BMP_pressure;BME280_temperature;BME280_humidity;BME280_pressure;Samples;Min_cycle;Max_cycle;Signal;HPM_P1;HPM_P2
2023/12/07 00:02:09;;;;;;;11.77;9.37;;;;;;;0.76;100.00;97705.22;6299841;28;20191;-54
2023/12/07 00:05:11;;;;;;;11.73;8.97;;;;;;;1.06;100.00;97713.91;6294457;28;20183;-57
2023/12/07 00:08:13;;;;;;;9.87;8.03;;;;;;;0.96;100.00;97706.31;6303520;28;20195;-57
2023/12/07 00:11:15;;;;;;;9.93;7.70;;;;;;;0.85;100.00;97714.63;6295705;28;20186;-55
2023/12/07 00:14:17;;;;;;;9.43;8.47;;;;;;;1.12;100.00;97705.31;6298309;28;20190;-57
2023/12/07 00:17:19;;;;;;;10.57;8.73;;;;;;;1.05;100.00;97714.09;6300649;28;20661;-56
2023/12/07 00:20:21;;;;;;;9.87;8.40;;;;;;;1.09;100.00;97703.06;6303325;28;20202;-57
2023/12/07 00:23:24;;;;;;;10.80;8.80;;;;;;;0.93;100.00;97713.72;6304064;28;20209;-57
2023/12/07 00:26:26;;;;;;;11.10;9.07;;;;;;;0.80;100.00;97705.69;6304966;28;20198;-57
2023/12/07 00:29:28;;;;;;;9.97;8.93;;;;;;;0.84;100.00;97720.03;6305097;28;20194;-57
2023/12/07 00:32:30;;;;;;;11.37;8.93;;;;;;;0.98;100.00;97717.41;6307357;28;20725;-53
2023/12/07 00:35:32;;;;;;;10.47;8.30;;;;;;;0.91;100.00;97720.97;6305989;28;20343;-57
2023/12/07 00:38:35;;;;;;;8.90;7.97;;;;;;;0.80;100.00;97722.22;6307097;28;20194;-55
2023/12/07 00:41:37;;;;;;;9.10;7.70;;;;;;;0.71;100.00;97723.28;6297312;28;20187;-56
2023/12/07 00:44:42;;;;;;;11.30;8.37;;;;;;;0.65;100.00;97729.25;6299884;28;20711;-56
2023/12/07 00:47:44;;;;;;;11.23;8.87;;;;;;;0.63;100.00;97724.16;6292548;28;20557;-55
2023/12/07 00:50:47;;;;;;;11.23;9.30;;;;;;;0.60;100.00;97726.34;6297418;28;20213;-54
2023/12/07 00:53:49;;;;;;;10.93;9.17;;;;;;;0.62;100.00;97732.22;6301265;28;20207;-55
2023/12/07 00:56:51;;;;;;;10.40;8.97;;;;;;;0.78;100.00;97732.88;6300959;28;20710;-57
2023/12/07 00:59:53;;;;;;;9.77;8.27;;;;;;;0.74;100.00;97739.47;6299914;28;20197;-57
2023/12/07 01:02:55;;;;;;;10.83;7.70;;;;;;;0.78;100.00;97735.47;6300749;28;20654;-55
2023/12/07 01:05:57;;;;;;;8.77;7.40;;;;;;;0.93;100.00;97738.13;6301066;28;20663;-56
2023/12/07 01:08:59;;;;;;;7.93;7.13;;;;;;;1.30;100.00;97741.69;6301786;28;20190;-54
2023/12/07 01:12:02;;;;;;;8.03;6.93;;;;;;;1.19;100.00;97739.53;6301489;28;20198;-56
2023/12/07 01:15:04;;;;;;;8.67;6.90;;;;;;;1.11;100.00;97740.41;6297048;28;20218;-56
2023/12/07 01:18:06;;;;;;;7.40;6.17;;;;;;;1.26;100.00;97735.16;6298313;28;20198;-54
2023/12/07 01:21:08;;;;;;;6.97;6.20;;;;;;;1.46;100.00;97749.38;6299015;28;20198;-56
2023/12/07 01:24:10;;;;;;;8.97;6.70;;;;;;;1.48;100.00;97755.28;6295983;28;20766;-56
2023/12/07 01:27:18;;;;;;;7.53;6.70;;;;;;;1.60;100.00;97757.44;6297965;28;20214;-53
2023/12/07 01:30:20;;;;;;;7.47;6.33;;;;;;;1.62;100.00;97760.66;6299337;28;20187;-56
2023/12/07 01:33:22;;;;;;;7.20;6.40;;;;;;;1.50;100.00;97760.34;6300837;28;20324;-54
2023/12/07 01:36:25;;;;;;;7.20;6.30;;;;;;;1.69;100.00;97770.28;6300997;28;20277;-55
2023/12/07 01:39:27;;;;;;;6.90;5.73;;;;;;;1.39;100.00;97763.41;6313690;28;20740;-56
2023/12/07 01:42:31;;;;;;;7.33;6.10;;;;;;;1.31;100.00;97760.88;6281650;28;20204;-54
2023/12/07 01:45:34;;;;;;;7.03;6.33;;;;;;;1.27;100.00;97768.28;6308060;28;20195;-53
2023/12/07 01:48:36;;;;;;;8.13;6.63;;;;;;;1.67;100.00;97774.88;6304794;28;20206;-57
2023/12/07 01:51:39;;;;;;;8.97;8.07;;;;;;;1.74;100.00;97769.72;6302541;28;20191;-55
2023/12/07 01:54:42;;;;;;;7.40;6.57;;;;;;;1.62;100.00;97774.59;6301422;28;20680;-56
2023/12/07 01:57:45;;;;;;;8.50;6.60;;;;;;;1.70;100.00;97774.53;6303832;28;20189;-53
2023/12/07 02:00:48;;;;;;;8.03;6.97;;;;;;;1.71;100.00;97765.63;6312801;28;20212;-55
2023/12/07 02:03:50;;;;;;;9.47;7.50;;;;;;;1.68;100.00;97773.91;6315188;28;20287;-55
2023/12/07 02:06:56;;;;;;;7.63;6.77;;;;;;;1.66;100.00;97773.25;6302840;28;20191;-53
2023/12/07 02:09:59;;;;;;;9.27;7.87;;;;;;;1.56;100.00;97772.72;6302464;28;20552;-52
2023/12/07 02:13:01;;;;;;;8.00;7.20;;;;;;;1.47;100.00;97750.19;6304478;28;20194;-55
2023/12/07 02:16:39;;;;;;;9.70;7.97;;;;;;;1.48;100.00;97770.22;6305942;28;20574;-55
2023/12/07 02:19:51;;;;;;;8.90;7.30;;;;;;;1.45;100.00;97778.44;6217132;28;20727;-56
2023/12/07 02:23:04;;;;;;;8.63;7.73;;;;;;;1.43;100.00;97780.41;6216928;28;20229;-56
2023/12/07 02:26:08;;;;;;;9.87;8.00;;;;;;;1.48;100.00;97765.78;6217328;28;20968;-55
2023/12/07 02:29:10;;;;;;;10.27;8.27;;;;;;;1.42;100.00;97770.91;6216801;28;20215;-55
2023/12/07 02:32:13;;;;;;;8.87;7.93;;;;;;;1.32;100.00;97773.81;6216558;28;20242;-53
2023/12/07 02:35:15;;;;;;;9.07;8.13;;;;;;;1.42;100.00;97781.41;6199492;28;20230;-55
2023/12/07 02:38:19;;;;;;;9.37;7.20;;;;;;;1.55;100.00;97781.59;6216833;28;20287;-54
2023/12/07 02:41:23;;;;;;;10.87;7.97;;;;;;;1.16;100.00;97755.63;6216307;28;20743;-56
2023/12/07 02:44:26;;;;;;;9.87;8.20;;;;;;;1.42;100.00;97792.72;6216290;28;20193;-52
2023/12/07 02:47:28;;;;;;;8.80;7.17;;;;;;;1.31;100.00;97795.81;6216067;28;20631;-54
2023/12/07 02:50:30;;;;;;;9.40;8.13;;;;;;;1.35;100.00;97788.41;6216193;28;20338;-54
2023/12/07 02:53:32;;;;;;;9.67;7.60;;;;;;;1.68;100.00;97787.03;6216106;28;20740;-54
2023/12/07 02:56:34;;;;;;;9.93;8.07;;;;;;;1.56;100.00;97791.09;6302833;28;20711;-54
2023/12/07 02:59:36;;;;;;;9.13;7.87;;;;;;;1.29;100.00;97774.19;6296602;28;20678;-55
2023/12/07 03:02:39;;;;;;;9.60;7.63;;;;;;;1.27;100.00;97791.91;6305605;28;20626;-51
2023/12/07 03:05:41;;;;;;;10.90;8.63;;;;;;;1.44;100.00;97790.75;6304564;28;20198;-55
2023/12/07 03:08:43;;;;;;;10.10;8.60;;;;;;;1.49;100.00;97783.16;6307868;28;20651;-56
2023/12/07 03:11:45;;;;;;;10.67;7.87;;;;;;;1.32;100.00;97784.31;6308403;28;20217;-56
2023/12/07 03:14:48;;;;;;;8.57;7.00;;;;;;;1.53;100.00;97794.09;6302186;28;20578;-54
2023/12/07 03:17:50;;;;;;;8.83;7.30;;;;;;;1.35;100.00;97770.03;6307159;28;20204;-56
2023/12/07 03:20:53;;;;;;;9.80;7.33;;;;;;;1.41;100.00;97798.16;6304951;28;20198;-55
2023/12/07 03:23:55;;;;;;;10.73;8.07;;;;;;;1.34;100.00;97808.56;6305085;28;20540;-55
2023/12/07 03:26:57;;;;;;;9.13;7.17;;;;;;;1.37;100.00;97800.31;6300005;28;20224;-56
2023/12/07 03:29:59;;;;;;;9.07;7.70;;;;;;;1.45;100.00;97802.88;6296972;28;20264;-57
2023/12/07 03:33:01;;;;;;;10.57;7.93;;;;;;;1.36;100.00;97792.63;6299992;28;20257;-57
2023/12/07 03:36:04;;;;;;;8.77;7.53;;;;;;;1.62;100.00;97811.38;6299802;28;20660;-54
2023/12/07 03:39:06;;;;;;;9.87;7.93;;;;;;;1.41;100.00;97806.84;6300179;28;20191;-57
2023/12/07 03:42:09;;;;;;;9.10;7.40;;;;;;;1.44;100.00;97806.50;6306519;28;20221;-57
2023/12/07 03:45:32;;;;;;;9.37;7.97;;;;;;;1.31;100.00;97818.59;6304959;28;20734;-57
2023/12/07 03:48:34;;;;;;;8.20;7.17;;;;;;;1.39;100.00;97827.22;6305020;28;20217;-57
2023/12/07 03:51:38;;;;;;;9.80;8.07;;;;;;;1.41;100.00;97842.78;6286540;28;20698;-55
2023/12/07 03:54:42;;;;;;;10.43;8.43;;;;;;;1.36;100.00;97839.88;6301631;28;20203;-58
2023/12/07 03:57:45;;;;;;;9.90;8.40;;;;;;;1.56;100.00;97838.34;6303721;28;20220;-55
2023/12/07 04:00:47;;;;;;;9.77;7.40;;;;;;;1.61;100.00;97843.88;6299633;28;20280;-57
2023/12/07 04:03:50;;;;;;;10.77;7.87;;;;;;;1.43;100.00;97846.88;6298673;28;20196;-56
2023/12/07 04:06:52;;;;;;;8.87;7.47;;;;;;;1.31;100.00;97842.22;6297285;28;20203;-59
2023/12/07 04:09:55;;;;;;;9.50;7.60;;;;;;;1.30;100.00;97841.41;6298617;28;20179;-57
2023/12/07 04:12:57;;;;;;;9.60;7.60;;;;;;;1.43;100.00;97846.88;6303010;28;20684;-54
2023/12/07 04:15:59;;;;;;;9.70;8.33;;;;;;;1.46;100.00;97841.25;6303321;28;20207;-57
2023/12/07 04:19:02;;;;;;;10.90;8.40;;;;;;;1.70;100.00;97849.88;6303341;28;20264;-58
2023/12/07 04:22:04;;;;;;;10.53;8.87;;;;;;;1.44;100.00;97866.88;6304130;28;20186;-59
2023/12/07 04:25:07;;;;;;;10.07;8.03;;;;;;;1.26;100.00;97856.69;6304474;28;20268;-58
2023/12/07 04:28:09;;;;;;;13.40;10.70;;;;;;;1.19;100.00;97874.16;6306920;28;20662;-56
2023/12/07 04:31:11;;;;;;;12.10;9.50;;;;;;;1.28;100.00;97867.84;6300975;28;20246;-56
2023/12/07 04:34:14;;;;;;;12.03;9.57;;;;;;;1.28;100.00;97872.25;6309096;28;20201;-57
2023/12/07 04:37:16;;;;;;;10.27;8.57;;;;;;;1.28;100.00;97880.97;6307720;28;20204;-58
2023/12/07 04:40:19;;;;;;;12.50;10.27;;;;;;;1.55;100.00;97884.00;6303322;28;20206;-58
2023/12/07 04:43:21;;;;;;;10.53;9.33;;;;;;;1.41;100.00;97866.41;6304219;28;20694;-57
2023/12/07 04:46:23;;;;;;;13.10;10.57;;;;;;;1.48;100.00;97896.22;6299649;28;20198;-59
2023/12/07 04:49:26;;;;;;;13.20;10.30;;;;;;;1.38;100.00;97903.50;6299531;28;20653;-55
2023/12/07 04:52:29;;;;;;;14.57;11.27;;;;;;;1.46;100.00;97899.00;6302530;28;20202;-57
2023/12/07 04:55:34;;;;;;;12.60;9.80;;;;;;;1.41;100.00;97892.66;6302708;28;20311;-56
2023/12/07 04:58:42;;;;;;;12.83;10.17;;;;;;;0.85;100.00;97798.53;6307270;28;20211;-59
2023/12/07 05:01:47;;;;;;;11.67;9.20;;;;;;;1.60;100.00;97907.91;6305226;28;20199;-56
2023/12/07 05:04:49;;;;;;;13.13;10.33;;;;;;;1.44;100.00;97910.69;6303322;28;20319;-58
2023/12/07 05:07:52;;;;;;;12.10;9.90;;;;;;;1.26;100.00;97901.31;6309522;28;20194;-58
2023/12/07 05:10:55;;;;;;;11.80;10.00;;;;;;;1.23;100.00;97922.66;6309104;28;20215;-59
2023/12/07 05:13:57;;;;;;;13.07;9.63;;;;;;;1.20;100.00;97914.31;6312298;28;20316;-58
2023/12/07 05:16:59;;;;;;;14.53;10.23;;;;;;;1.24;100.00;97923.50;6306688;28;20194;-59
2023/12/07 05:20:04;;;;;;;13.43;9.83;;;;;;;1.08;100.00;97921.78;6307789;28;20203;-57
2023/12/07 05:23:07;;;;;;;12.83;9.30;;;;;;;0.90;100.00;97921.28;6300344;28;20191;-59
2023/12/07 05:26:10;;;;;;;13.50;9.80;;;;;;;0.87;100.00;97938.16;6303615;28;20666;-55
2023/12/07 05:29:13;;;;;;;11.60;9.30;;;;;;;1.06;100.00;97939.50;6303473;28;20226;-56
2023/12/07 05:32:15;;;;;;;11.80;10.00;;;;;;;1.00;100.00;97938.41;6302023;28;20227;-57
2023/12/07 05:35:17;;;;;;;11.77;8.83;;;;;;;0.96;100.00;97946.81;6301732;28;20207;-58
2023/12/07 05:38:19;;;;;;;10.70;8.90;;;;;;;0.74;100.00;97933.50;6303067;28;20194;-59
2023/12/07 05:41:21;;;;;;;11.93;9.13;;;;;;;0.76;100.00;97951.69;6305673;28;20186;-57
2023/12/07 05:44:23;;;;;;;11.70;9.37;;;;;;;0.69;100.00;97948.09;6301650;28;20186;-59
2023/12/07 05:47:26;;;;;;;12.30;9.57;;;;;;;0.43;100.00;97933.47;6303130;28;21054;-60
2023/12/07 05:50:28;;;;;;;12.77;10.10;;;;;;;0.66;100.00;97956.31;6303560;28;20186;-58
2023/12/07 05:53:33;;;;;;;11.90;9.90;;;;;;;0.74;100.00;97964.97;6302876;28;20210;-56
2023/12/07 05:56:35;;;;;;;12.40;9.77;;;;;;;0.73;100.00;97963.31;6302211;28;20847;-56
2023/12/07 05:59:39;;;;;;;14.03;10.30;;;;;;;0.72;100.00;97966.94;6299551;28;20196;-59
2023/12/07 06:02:41;;;;;;;13.27;9.87;;;;;;;0.70;100.00;97970.72;6299088;28;20198;-59
2023/12/07 06:05:44;;;;;;;10.90;8.83;;;;;;;0.64;100.00;97977.47;6302275;28;20197;-58
2023/12/07 06:08:47;;;;;;;15.87;12.03;;;;;;;0.71;100.00;97975.78;6309440;28;20680;-59
2023/12/07 06:11:49;;;;;;;14.13;11.47;;;;;;;0.76;100.00;97975.28;6296851;28;20229;-57
2023/12/07 06:14:51;;;;;;;15.00;11.23;;;;;;;0.99;100.00;97981.38;6303626;28;20292;-59
2023/12/07 06:17:54;;;;;;;14.33;10.87;;;;;;;0.96;100.00;97989.59;6303584;28;20731;-59
2023/12/07 06:20:56;;;;;;;13.77;11.13;;;;;;;1.00;100.00;97992.69;6305810;28;20199;-60
2023/12/07 06:23:58;;;;;;;13.80;10.70;;;;;;;0.92;100.00;97982.22;6306636;28;20578;-59
2023/12/07 06:27:02;;;;;;;12.83;10.43;;;;;;;1.01;100.00;97991.69;6306119;28;20340;-59
2023/12/07 06:30:07;;;;;;;14.10;10.67;;;;;;;1.12;100.00;97996.53;6309095;28;20196;-59
2023/12/07 06:33:09;;;;;;;14.00;10.97;;;;;;;1.17;100.00;97967.97;6310768;28;20235;-60
2023/12/07 06:36:18;;;;;;;13.20;10.53;;;;;;;1.24;100.00;97999.59;6313680;28;20501;-57
2023/12/07 06:39:20;;;;;;;14.10;10.43;;;;;;;1.06;100.00;98002.47;6313631;28;20573;-57
2023/12/07 06:42:22;;;;;;;14.70;10.77;;;;;;;0.99;100.00;97997.13;6312966;28;20259;-59
2023/12/07 06:45:25;;;;;;;13.50;10.80;;;;;;;0.90;100.00;98015.69;6299020;28;20197;-58
2023/12/07 06:48:27;;;;;;;13.57;10.10;;;;;;;0.73;100.00;97989.53;6298450;28;20732;-59
2023/12/07 06:51:29;;;;;;;13.10;10.47;;;;;;;0.49;100.00;97938.06;6299190;28;20199;-59
2023/12/07 06:54:31;;;;;;;13.73;10.80;;;;;;;1.16;100.00;98005.69;6302549;28;20204;-59
2023/12/07 06:57:33;;;;;;;14.87;10.10;;;;;;;1.10;100.00;98009.00;6302826;28;20561;-58
2023/12/07 07:00:36;;;;;;;12.10;9.67;;;;;;;0.99;100.00;98019.91;6304106;28;20259;-58
2023/12/07 07:03:38;;;;;;;13.57;10.77;;;;;;;1.31;100.00;98016.25;6305130;28;20877;-60
2023/12/07 07:06:41;;;;;;;14.03;10.07;;;;;;;1.34;100.00;98021.16;6306525;28;20197;-60
2023/12/07 07:09:43;;;;;;;13.83;10.67;;;;;;;1.26;100.00;98032.53;6303242;28;20221;-60
2023/12/07 07:12:45;;;;;;;12.47;9.63;;;;;;;1.37;100.00;98027.84;6296914;28;20202;-55
2023/12/07 07:15:48;;;;;;;13.70;10.27;;;;;;;1.25;100.00;98027.44;6300263;28;20678;-59
2023/12/07 07:18:50;;;;;;;12.90;9.63;;;;;;;1.34;100.00;98031.66;6299701;28;20210;-60
2023/12/07 07:21:52;;;;;;;13.83;10.30;;;;;;;1.38;100.00;98029.47;6297354;28;20578;-60
2023/12/07 07:24:54;;;;;;;14.40;10.53;;;;;;;1.23;100.00;98026.78;6298595;28;20193;-59
2023/12/07 07:27:56;;;;;;;14.40;10.07;;;;;;;1.33;100.00;98031.81;6294961;28;21065;-60
2023/12/07 07:30:58;;;;;;;12.33;10.03;;;;;;;1.28;100.00;98041.06;6299156;28;20227;-59
2023/12/07 07:34:01;;;;;;;11.83;9.47;;;;;;;1.16;100.00;98024.06;6297638;28;20206;-58
2023/12/07 07:37:03;;;;;;;13.60;11.03;;;;;;;1.09;100.00;98009.19;6300491;28;20621;-60
2023/12/07 07:40:06;;;;;;;14.03;10.07;;;;;;;1.14;100.00;98048.84;6301316;28;20202;-58
2023/12/07 07:43:09;;;;;;;13.30;9.50;;;;;;;1.10;100.00;98037.88;6302473;28;20837;-60
2023/12/07 07:46:11;;;;;;;12.77;9.90;;;;;;;1.08;100.00;98060.00;6304841;28;20346;-60
2023/12/07 07:49:13;;;;;;;11.67;9.40;;;;;;;1.01;100.00;98057.25;6303196;28;20678;-60
2023/12/07 07:52:15;;;;;;;12.60;10.17;;;;;;;0.81;100.00;98030.66;6301977;28;20210;-59
2023/12/07 07:55:17;;;;;;;14.20;10.37;;;;;;;1.14;100.00;98059.34;6299613;28;20209;-58
2023/12/07 07:58:20;;;;;;;15.83;10.90;;;;;;;1.25;100.00;98072.06;6292493;28;20193;-58
2023/12/07 08:01:22;;;;;;;16.10;11.73;;;;;;;1.14;100.00;98068.03;6298303;28;20738;-58
2023/12/07 08:04:24;;;;;;;14.07;10.67;;;;;;;1.20;100.00;98064.72;6297494;28;20194;-59
2023/12/07 08:07:26;;;;;;;14.07;10.63;;;;;;;1.19;100.00;98065.72;6304849;28;20221;-58
2023/12/07 08:10:29;;;;;;;15.57;11.17;;;;;;;1.39;100.00;98060.81;6295459;28;20194;-60
2023/12/07 08:13:31;;;;;;;13.43;10.73;;;;;;;1.42;100.00;98057.03;6298020;28;20198;-59
2023/12/07 08:16:33;;;;;;;13.63;11.00;;;;;;;1.37;100.00;98064.59;6296443;28;20351;-59
2023/12/07 08:19:36;;;;;;;13.97;11.07;;;;;;;1.42;100.00;98063.09;6299164;28;20251;-59
2023/12/07 08:22:40;;;;;;;14.40;10.33;;;;;;;1.36;100.00;98055.09;6300215;28;20194;-59
2023/12/07 08:25:43;;;;;;;14.50;10.33;;;;;;;1.50;100.00;98070.09;6292025;28;20214;-59
2023/12/07 08:28:46;;;;;;;15.93;11.43;;;;;;;1.52;100.00;98063.66;6301663;28;20537;-57
2023/12/07 08:31:48;;;;;;;13.47;9.70;;;;;;;1.28;100.00;98027.94;6282815;28;20741;-59
2023/12/07 08:34:51;;;;;;;12.73;9.87;;;;;;;1.63;99.69;98066.91;6311028;28;20218;-59
2023/12/07 08:37:53;;;;;;;14.13;10.97;;;;;;;1.54;100.00;98074.84;6306996;28;20194;-59
2023/12/07 08:40:55;;;;;;;12.10;9.27;;;;;;;1.47;100.00;98071.25;6316483;28;20198;-59
2023/12/07 08:43:58;;;;;;;12.83;9.90;;;;;;;1.49;100.00;98073.72;6307295;28;20753;-58
2023/12/07 08:47:00;;;;;;;13.50;9.87;;;;;;;1.56;100.00;98079.91;6307509;28;20187;-59
2023/12/07 08:50:02;;;;;;;13.20;10.30;;;;;;;1.64;100.00;98079.84;6308095;28;20684;-57
2023/12/07 08:53:04;;;;;;;12.57;9.47;;;;;;;1.67;100.00;98073.41;6310735;28;20610;-59
2023/12/07 08:56:07;;;;;;;13.27;10.30;;;;;;;1.80;98.84;98077.09;6310952;28;20719;-59
2023/12/07 08:59:09;;;;;;;13.13;10.20;;;;;;;1.74;100.00;98071.75;6311792;28;20194;-58
2023/12/07 09:02:11;;;;;;;12.93;10.37;;;;;;;1.97;96.41;98079.59;6302162;28;20210;-59
2023/12/07 09:05:15;;;;;;;13.53;9.63;;;;;;;1.82;97.05;98092.66;6312193;28;20224;-59
2023/12/07 09:08:17;;;;;;;11.07;9.17;;;;;;;1.75;97.76;98083.88;6315056;28;20194;-59
2023/12/07 09:11:19;;;;;;;11.70;9.80;;;;;;;1.99;96.04;98094.19;6316871;28;20186;-56
2023/12/07 09:14:22;;;;;;;13.07;9.77;;;;;;;2.04;96.68;98093.66;6314720;28;20659;-61
2023/12/07 09:17:24;;;;;;;11.70;9.33;;;;;;;2.26;94.60;98082.28;6303913;28;20694;-56
2023/12/07 09:20:26;;;;;;;11.70;9.40;;;;;;;2.33;93.85;98096.34;6311979;28;20199;-59
2023/12/07 09:23:28;;;;;;;13.40;10.03;;;;;;;2.55;92.48;98081.50;6304240;28;20664;-55
2023/12/07 09:26:31;;;;;;;11.83;9.07;;;;;;;2.70;91.50;98083.31;6298715;28;20201;-59
2023/12/07 09:29:33;;;;;;;10.70;8.83;;;;;;;2.95;89.48;98089.94;6308110;28;20223;-57
2023/12/07 09:32:38;;;;;;;13.87;9.53;;;;;;;2.99;88.89;98072.78;6306857;28;21064;-59
2023/12/07 09:35:40;;;;;;;12.50;9.33;;;;;;;2.99;87.48;98070.13;6308026;28;20226;-60
2023/12/07 09:38:42;;;;;;;11.83;9.70;;;;;;;2.97;88.58;98072.16;6301158;28;20194;-59
2023/12/07 09:41:47;;;;;;;12.17;9.47;;;;;;;3.08;87.19;98066.41;6308745;28;20247;-58
2023/12/07 09:44:49;;;;;;;11.83;9.23;;;;;;;2.94;88.51;98061.16;6310204;28;20203;-59
2023/12/07 09:47:53;;;;;;;11.93;9.40;;;;;;;2.85;89.13;98044.66;6307354;28;20207;-59
2023/12/07 09:50:56;;;;;;;12.20;9.70;;;;;;;2.97;87.61;98063.44;6309264;28;20282;-58
2023/12/07 09:53:59;;;;;;;11.93;8.97;;;;;;;2.92;88.61;98063.19;6303190;28;20659;-59
2023/12/07 09:57:01;;;;;;;11.80;8.87;;;;;;;2.88;87.34;98056.66;6303791;28;20582;-57
2023/12/07 10:00:04;;;;;;;11.87;9.50;;;;;;;2.69;89.53;98055.38;6300610;28;20667;-57
2023/12/07 10:03:19;;;;;;;10.47;8.57;;;;;;;2.84;88.85;98057.00;6297900;28;20199;-58
2023/12/07 10:06:23;;;;;;;13.27;9.43;;;;;;;2.84;88.63;98053.56;6296558;28;20720;-56
2023/12/07 10:09:26;;;;;;;11.17;8.90;;;;;;;2.78;88.46;98034.06;6301488;28;20191;-58
2023/12/07 10:12:35;;;;;;;12.20;9.87;;;;;;;2.89;89.65;98043.28;6304174;28;20669;-57
2023/12/07 10:15:38;;;;;;;12.00;9.30;;;;;;;2.87;89.30;98041.88;6309581;28;20811;-57
2023/12/07 10:18:41;;;;;;;10.80;8.57;;;;;;;2.79;89.91;98038.31;6309502;28;20577;-56
2023/12/07 10:21:45;;;;;;;12.83;9.53;;;;;;;2.82;89.68;98045.03;6305329;28;20270;-58
2023/12/07 10:24:48;;;;;;;11.27;9.37;;;;;;;2.77;90.45;98037.69;6301525;28;20225;-58
2023/12/07 10:27:50;;;;;;;13.03;9.40;;;;;;;2.80;89.88;98044.41;6302557;28;20219;-59
2023/12/07 10:30:52;;;;;;;11.00;8.87;;;;;;;2.87;88.02;98028.72;6296029;28;20233;-59
2023/12/07 10:33:54;;;;;;;12.50;9.80;;;;;;;2.81;89.94;98030.25;6297653;28;20572;-57
2023/12/07 10:36:57;;;;;;;13.87;10.07;;;;;;;2.82;90.56;98037.97;6303916;28;20257;-56
2023/12/07 10:40:00;;;;;;;12.23;9.97;;;;;;;2.81;89.72;98038.97;6312236;28;20233;-58
2023/12/07 10:43:05;;;;;;;11.37;9.20;;;;;;;2.74;89.83;98048.56;6303200;28;20483;-59
2023/12/07 10:46:09;;;;;;;12.60;9.60;;;;;;;2.63;90.65;98042.97;6298359;28;20691;-58
2023/12/07 10:49:17;;;;;;;11.10;9.07;;;;;;;2.37;91.90;98027.66;6303232;28;20187;-56
2023/12/07 10:52:34;;;;;;;12.37;9.93;;;;;;;2.39;91.57;98046.69;6304881;28;20201;-57
2023/12/07 10:55:47;;;;;;;12.73;9.43;;;;;;;2.61;90.98;98040.53;6305871;28;20209;-58
2023/12/07 10:58:50;;;;;;;15.50;10.63;;;;;;;2.65;90.77;98047.03;6306825;28;20232;-59
2023/12/07 11:01:52;;;;;;;12.70;9.53;;;;;;;2.74;89.92;98034.59;6286227;28;20188;-57
2023/12/07 11:04:57;;;;;;;11.93;9.80;;;;;;;2.68;90.84;98030.91;6285821;28;20202;-57
2023/12/07 11:08:07;;;;;;;13.43;10.70;;;;;;;2.69;90.80;98039.59;6307991;28;20668;-59
2023/12/07 11:11:29;;;;;;;13.60;10.57;;;;;;;2.45;91.72;98012.59;6310386;28;20253;-57
2023/12/07 11:14:32;;;;;;;13.27;10.87;;;;;;;2.73;90.37;98036.44;6310756;28;20203;-58
2023/12/07 11:17:53;;;;;;;14.70;10.83;;;;;;;2.56;92.14;98038.44;6299420;28;20208;-57
2023/12/07 11:20:56;;;;;;;16.03;10.73;;;;;;;2.48;91.99;98021.94;6297969;28;20201;-58
2023/12/07 11:24:01;;;;;;;14.20;10.77;;;;;;;2.60;91.75;98044.13;6299166;28;20199;-59
2023/12/07 11:27:04;;;;;;;13.73;10.60;;;;;;;2.57;92.08;98036.63;6306441;28;20303;-58
2023/12/07 11:30:07;;;;;;;16.87;10.67;;;;;;;2.64;91.17;98029.63;6299722;28;20204;-59
2023/12/07 11:33:11;;;;;;;13.50;10.40;;;;;;;2.61;91.05;98026.53;6295771;28;20227;-58
2023/12/07 11:36:14;;;;;;;14.57;10.63;;;;;;;2.69;90.03;98026.44;6302035;28;20233;-60
2023/12/07 11:39:18;;;;;;;15.57;10.63;;;;;;;2.59;90.91;98019.66;6302001;28;20543;-56
2023/12/07 11:42:30;;;;;;;14.07;10.67;;;;;;;2.72;89.83;98036.63;6302999;28;20558;-59
2023/12/07 11:45:40;;;;;;;16.30;10.87;;;;;;;2.64;91.02;98032.25;6304414;28;20278;-57
2023/12/07 11:48:48;;;;;;;15.00;10.37;;;;;;;2.68;90.21;98022.19;6303967;28;20549;-59
2023/12/07 11:51:50;;;;;;;13.93;9.97;;;;;;;2.70;89.49;98022.81;6303694;28;20203;-60
2023/12/07 11:54:52;;;;;;;15.03;10.60;;;;;;;2.65;90.06;98031.25;6300235;28;20203;-58
2023/12/07 11:57:54;;;;;;;14.93;11.03;;;;;;;2.73;89.92;98018.00;6300426;28;20203;-59
2023/12/07 12:00:57;;;;;;;13.83;10.40;;;;;;;2.66;90.51;98019.75;6303603;28;20278;-60
2023/12/07 12:03:59;;;;;;;14.30;10.50;;;;;;;2.64;90.46;98032.25;6292891;28;20219;-59
2023/12/07 12:07:04;;;;;;;14.70;10.73;;;;;;;2.58;91.17;98030.38;6296239;28;20181;-59
2023/12/07 12:10:07;;;;;;;15.17;11.23;;;;;;;2.31;91.79;97997.63;6296272;28;20207;-57
2023/12/07 12:13:10;;;;;;;14.23;11.57;;;;;;;2.67;89.80;98031.91;6296407;28;20200;-60
2023/12/07 12:16:12;;;;;;;15.63;11.67;;;;;;;2.54;92.06;98031.72;6295266;28;20212;-59
2023/12/07 12:19:15;;;;;;;13.53;11.27;;;;;;;2.56;91.66;98029.72;6301076;28;20194;-57
2023/12/07 12:22:29;;;;;;;16.43;11.67;;;;;;;2.48;91.40;98017.50;6303329;28;20195;-59
2023/12/07 12:25:33;;;;;;;17.07;11.80;;;;;;;2.56;91.15;98027.09;6298282;28;20227;-60
2023/12/07 12:28:41;;;;;;;14.13;11.07;;;;;;;2.54;91.04;98034.34;6301151;28;20186;-60
2023/12/07 12:31:44;;;;;;;15.73;10.93;;;;;;;2.28;93.13;98051.38;6299409;28;20231;-57
2023/12/07 12:34:51;;;;;;;15.43;11.70;;;;;;;2.29;92.99;98042.50;6280711;28;20202;-59
2023/12/07 12:37:55;;;;;;;15.17;11.57;;;;;;;1.87;91.22;97939.78;6298216;28;20230;-59
2023/12/07 12:40:57;;;;;;;14.27;11.17;;;;;;;2.52;90.83;98037.19;6296154;28;20327;-59
2023/12/07 12:43:59;;;;;;;14.47;11.37;;;;;;;2.51;91.11;98030.28;6295604;28;20554;-59
2023/12/07 12:47:01;;;;;;;13.83;11.00;;;;;;;2.47;91.14;98044.78;6298148;28;20651;-59
2023/12/07 12:50:04;;;;;;;14.60;10.83;;;;;;;2.32;92.22;98043.97;6302049;28;20199;-58
2023/12/07 12:53:13;;;;;;;13.60;9.80;;;;;;;2.53;90.21;98044.06;6303094;28;20220;-56
2023/12/07 12:56:16;;;;;;;15.40;11.40;;;;;;;2.53;90.36;98043.25;6297389;28;20199;-60
2023/12/07 12:59:18;;;;;;;15.07;10.40;;;;;;;2.44;90.87;98049.59;6301721;28;20851;-59
2023/12/07 13:02:20;;;;;;;13.30;10.20;;;;;;;2.41;91.12;98049.94;6302463;28;20559;-59
2023/12/07 13:05:23;;;;;;;12.90;10.10;;;;;;;2.23;92.67;98064.25;6304941;28;20225;-58
2023/12/07 13:08:25;;;;;;;13.07;9.93;;;;;;;2.14;93.41;98049.56;6288626;28;20214;-60
2023/12/07 13:11:27;;;;;;;12.70;9.93;;;;;;;2.49;90.38;98048.03;6307559;28;20214;-59
2023/12/07 13:14:29;;;;;;;15.37;10.70;;;;;;;2.33;91.71;98053.47;6302022;28;20196;-58
2023/12/07 13:17:33;;;;;;;13.47;10.10;;;;;;;2.32;91.43;98044.78;6294544;28;20674;-54
2023/12/07 13:20:35;;;;;;;13.60;10.73;;;;;;;2.01;93.11;98038.84;6299827;28;20667;-60
2023/12/07 13:23:40;;;;;;;13.80;10.90;;;;;;;2.24;92.17;98047.47;6299896;28;20820;-59
2023/12/07 13:26:42;;;;;;;13.10;10.63;;;;;;;2.19;92.98;98049.03;6302927;28;20187;-58
2023/12/07 13:29:44;;;;;;;16.80;11.70;;;;;;;2.35;91.44;98058.56;6308270;28;20290;-58
2023/12/07 13:32:47;;;;;;;13.67;10.80;;;;;;;2.24;92.42;98063.25;6303344;28;20235;-59
2023/12/07 13:35:51;;;;;;;13.80;10.40;;;;;;;2.04;93.56;98067.38;6304419;28;20519;-59
2023/12/07 13:38:55;;;;;;;14.43;10.87;;;;;;;1.94;94.65;98059.75;6289417;28;20202;-58
2023/12/07 13:41:58;;;;;;;15.37;11.77;;;;;;;1.88;94.73;98073.59;6306072;28;20210;-59
2023/12/07 13:45:03;;;;;;;14.93;11.10;;;;;;;1.94;94.24;98061.56;6310461;28;20671;-56
2023/12/07 13:48:05;;;;;;;17.17;11.77;;;;;;;1.73;95.97;98078.00;6307116;28;20553;-60
2023/12/07 13:51:07;;;;;;;15.13;11.77;;;;;;;1.84;95.60;98076.75;6299734;28;20195;-59
2023/12/07 13:54:10;;;;;;;15.47;11.10;;;;;;;1.73;95.99;98083.25;6301074;28;20662;-59
2023/12/07 13:57:32;;;;;;;14.33;11.37;;;;;;;1.79;95.37;98078.09;6307887;28;20202;-58
2023/12/07 14:00:34;;;;;;;15.27;11.03;;;;;;;1.77;95.38;98085.34;6309899;28;20198;-60
2023/12/07 14:03:37;;;;;;;14.73;11.13;;;;;;;1.72;96.16;98095.53;6305602;28;20216;-56
2023/12/07 14:06:39;;;;;;;14.97;11.00;;;;;;;1.50;97.56;98094.53;6302808;28;20762;-57
2023/12/07 14:09:46;;;;;;;14.33;10.80;;;;;;;1.40;98.55;98098.38;6300112;28;20186;-57
2023/12/07 14:12:59;;;;;;;14.77;11.27;;;;;;;1.51;97.38;98079.59;6305651;28;20655;-57
2023/12/07 14:16:01;;;;;;;13.63;10.27;;;;;;;1.33;99.20;98102.69;6300031;28;20298;-57